Volta Grande, Brazil
Current Conditions -  °F | °C
As of 3:00 PM on Wednesday 26 Nov 2014 (Local Time) from SBME Reporting Station
Broken Clouds Broken Clouds  
Wind Chill: 95°   Ceiling: 8000
Heat Index: 103°   Visibility: 6mi
Dew Point: 72°   Wind: 8mph
Humidity: 47%   Direction: 340°NNW
Pressure: 29.74"   Gusts: NA
Location:  21.77°S, 42.54°W
Report Text: SBME 261700Z 34007KT 9999 FEW025 BKN080 35/22 Q1007
Loading
Personal Weather Stations






























Interactive Weather Map New forecast layout! Learn more

10-Day Weather Forecast

Advertisements
Track Severe Weather on mobile